createdAt,value
2022-09-21T00:04:25.218Z,5.70
2022-09-21T00:09:27.077Z,5.80
2022-09-21T00:14:28.829Z,5.80
2022-09-21T00:19:30.565Z,5.70
2022-09-21T00:24:33.308Z,5.70
2022-09-21T00:29:35.439Z,5.60
2022-09-21T00:34:37.270Z,5.60
2022-09-21T00:39:39.246Z,5.70
2022-09-21T00:44:41.093Z,5.60
2022-09-21T00:49:45.568Z,5.60
2022-09-21T00:54:55.897Z,5.50
2022-09-21T01:00:01.546Z,5.40
2022-09-21T01:05:07.813Z,5.40
2022-09-21T01:10:14.366Z,5.40
2022-09-21T01:15:48.965Z,5.20
2022-09-21T01:21:09.893Z,5.20
2022-09-21T01:26:31.045Z,5.30
2022-09-21T01:31:57.075Z,5.30
2022-09-21T01:37:04.840Z,5.30
2022-09-21T01:42:08.367Z,5.30
2022-09-21T01:47:15.401Z,5.30
2022-09-21T01:52:26.643Z,5.20
2022-09-21T01:57:55.729Z,5.20
2022-09-21T02:03:14.837Z,5.10
2022-09-21T02:08:16.963Z,5.10
2022-09-21T02:13:21.149Z,5.00
2022-09-21T02:18:57.665Z,5.00
2022-09-21T02:24:20.926Z,5.10
2022-09-21T02:29:33.457Z,5.10
2022-09-21T02:34:45.789Z,5.00
2022-09-21T02:40:00.067Z,4.80
2022-09-21T02:45:30.582Z,4.70
2022-09-21T02:50:57.770Z,4.70
2022-09-21T02:56:06.972Z,4.80
2022-09-21T03:01:12.175Z,4.70
2022-09-21T03:06:13.926Z,4.70
2022-09-21T03:11:20.305Z,4.70
2022-09-21T03:16:22.822Z,4.70
2022-09-21T03:21:24.598Z,4.50
2022-09-21T03:26:26.390Z,4.40
2022-09-21T03:31:28.144Z,4.50
2022-09-21T03:36:29.991Z,4.50
2022-09-21T03:41:32.039Z,4.50
2022-09-21T03:46:35.296Z,4.40
2022-09-21T03:51:37.111Z,4.40
2022-09-21T03:56:39.335Z,4.40
2022-09-21T04:01:41.453Z,4.40
2022-09-21T04:06:45.923Z,4.40
2022-09-21T04:11:48.256Z,4.30
2022-09-21T04:16:52.027Z,4.40
2022-09-21T04:21:55.031Z,4.50
2022-09-21T04:26:56.762Z,4.60
2022-09-21T04:31:58.526Z,4.60
2022-09-21T04:37:00.279Z,4.50
2022-09-21T04:42:02.038Z,4.30
2022-09-21T04:47:04.245Z,4.10
2022-09-21T04:52:06.049Z,4.30
2022-09-21T04:57:07.810Z,4.30
2022-09-21T05:02:09.887Z,4.30
2022-09-21T05:07:11.635Z,4.30
2022-09-21T05:12:13.478Z,4.40
2022-09-21T05:17:15.222Z,4.40
2022-09-21T05:22:17.187Z,4.40
2022-09-21T05:27:18.935Z,4.30
2022-09-21T05:32:52.020Z,4.20
2022-09-21T05:38:15.631Z,4.20
2022-09-21T05:43:17.839Z,4.30
2022-09-21T05:48:29.997Z,4.20
2022-09-21T05:53:49.839Z,4.20
2022-09-21T05:59:15.654Z,4.40
2022-09-21T06:04:17.803Z,4.60
2022-09-21T06:09:20.858Z,4.80
2022-09-21T06:14:25.618Z,5.10
2022-09-21T06:19:27.419Z,5.30
2022-09-21T06:24:29.152Z,5.50
2022-09-21T06:29:31.114Z,5.80
2022-09-21T06:34:32.830Z,5.90
2022-09-21T06:39:34.567Z,6.10
2022-09-21T06:44:36.438Z,6.30
2022-09-21T06:49:42.269Z,6.40
2022-09-21T06:54:44.318Z,6.60
2022-09-21T06:59:46.797Z,6.70
2022-09-21T07:04:48.518Z,6.80
2022-09-21T07:10:06.677Z,6.90
2022-09-21T07:15:10.384Z,7.10
2022-09-21T07:20:12.251Z,7.40
2022-09-21T07:25:14.544Z,7.90
2022-09-21T07:30:16.327Z,8.20
2022-09-21T07:35:19.263Z,8.50
2022-09-21T07:40:25.010Z,8.60
2022-09-21T07:45:27.289Z,8.90
2022-09-21T07:50:29.063Z,9.30
2022-09-21T07:55:31.189Z,9.80
2022-09-21T08:00:34.843Z,9.80
2022-09-21T08:05:36.591Z,10.00
2022-09-21T08:10:39.452Z,10.00
2022-09-21T08:15:49.711Z,10.10
2022-09-21T08:20:55.998Z,10.30
2022-09-21T08:26:07.658Z,10.50
2022-09-21T08:31:10.446Z,10.70
2022-09-21T08:36:12.204Z,10.80
2022-09-21T08:41:25.817Z,10.90
2022-09-21T08:46:31.428Z,11.00
2022-09-21T08:51:38.339Z,11.00
2022-09-21T08:57:03.423Z,11.00
2022-09-21T09:02:26.262Z,10.90
2022-09-21T09:07:36.802Z,10.60
2022-09-21T09:12:56.059Z,10.50
2022-09-21T09:18:19.538Z,10.50
2022-09-21T09:23:26.423Z,10.50
2022-09-21T09:28:38.471Z,10.60
2022-09-21T09:33:55.470Z,10.60
2022-09-21T09:39:01.446Z,10.60
2022-09-21T09:44:42.512Z,10.50
2022-09-21T09:50:11.794Z,10.30
2022-09-21T09:55:13.838Z,10.30
2022-09-21T10:00:19.515Z,10.20
2022-09-21T10:05:34.953Z,10.20
2022-09-21T10:10:40.280Z,10.20
2022-09-21T10:15:45.965Z,10.30
2022-09-21T10:21:18.979Z,10.30
2022-09-21T10:26:22.202Z,10.50
2022-09-21T10:31:27.070Z,10.70
2022-09-21T10:36:37.623Z,10.80
2022-09-21T10:41:39.527Z,10.90
2022-09-21T10:46:41.338Z,10.90
2022-09-21T10:51:45.931Z,11.20
2022-09-21T10:56:57.096Z,11.40
2022-09-21T11:02:00.926Z,11.70
2022-09-21T11:07:15.958Z,11.50
2022-09-21T11:12:30.114Z,11.40
2022-09-21T11:18:01.943Z,11.40
2022-09-21T11:23:26.180Z,11.60
2022-09-21T11:28:43.387Z,11.80
2022-09-21T11:34:02.803Z,12.00
2022-09-21T11:39:04.504Z,12.40
2022-09-21T11:44:19.163Z,12.90
2022-09-21T11:50:26.403Z,12.70
2022-09-21T12:08:55.137Z,11.90
2022-09-21T12:14:32.566Z,11.80
2022-09-21T12:19:59.694Z,12.00
2022-09-21T12:25:17.046Z,12.50
2022-09-21T12:30:22.134Z,12.90
2022-09-21T12:35:39.274Z,12.90
2022-09-21T12:41:04.291Z,12.80
2022-09-21T12:46:14.498Z,12.70
2022-09-21T12:51:25.442Z,12.50
2022-09-21T12:56:43.413Z,12.60
2022-09-21T13:02:03.449Z,12.40
2022-09-21T13:07:08.693Z,12.40
2022-09-21T13:12:24.788Z,12.40
2022-09-21T13:17:31.904Z,12.40
2022-09-21T13:22:47.169Z,12.40
2022-09-21T13:28:02.562Z,12.40
2022-09-21T13:33:26.894Z,12.50
2022-09-21T13:38:38.612Z,12.60
2022-09-21T13:44:01.084Z,12.60
2022-09-21T13:54:40.592Z,12.90
2022-09-21T13:59:46.299Z,13.10
2022-09-21T14:04:51.800Z,13.00
2022-09-21T14:09:59.778Z,13.00
2022-09-21T14:15:38.349Z,13.00
2022-09-21T14:21:02.405Z,13.00
2022-09-21T14:26:43.296Z,13.10
2022-09-21T14:31:48.040Z,12.90
2022-09-21T14:36:58.807Z,12.80
2022-09-21T14:42:30.567Z,12.60
2022-09-21T14:47:49.863Z,12.50
2022-09-21T14:53:09.364Z,12.30
2022-09-21T14:58:35.893Z,12.20
2022-09-21T15:04:24.259Z,12.10
2022-09-21T15:10:01.093Z,11.80
2022-09-21T15:15:38.771Z,11.60
2022-09-21T15:21:06.401Z,11.60
2022-09-21T15:26:27.238Z,11.60
2022-09-21T15:32:36.181Z,11.60
2022-09-21T15:37:41.197Z,11.70
2022-09-21T15:43:22.598Z,11.80
2022-09-21T16:02:14.988Z,11.90
2022-09-21T16:07:43.308Z,11.80
2022-09-21T16:18:36.714Z,11.50
2022-09-21T16:23:48.826Z,11.40
2022-09-21T16:29:00.851Z,11.30
2022-09-21T16:34:53.770Z,11.20
2022-09-21T16:40:00.771Z,11.00
2022-09-21T16:45:26.568Z,10.80
2022-09-21T16:50:31.591Z,10.70
2022-09-21T16:55:59.418Z,10.50
2022-09-21T17:01:14.602Z,10.30
2022-09-21T17:06:25.700Z,10.10
2022-09-21T17:11:43.998Z,9.90
2022-09-21T17:17:08.913Z,9.80
2022-09-21T17:23:08.491Z,9.70
2022-09-21T17:28:23.387Z,9.50
2022-09-21T17:33:26.007Z,9.40
2022-09-21T17:38:27.738Z,9.20
2022-09-21T17:43:37.230Z,9.20
2022-09-21T17:48:40.943Z,9.00
2022-09-21T17:53:42.918Z,8.90
2022-09-21T17:59:00.327Z,8.90
2022-09-21T18:04:02.659Z,8.80
2022-09-21T18:09:05.219Z,8.60
2022-09-21T18:14:44.639Z,8.60
2022-09-21T18:19:59.986Z,8.50
2022-09-21T18:25:11.759Z,8.40
2022-09-21T18:30:14.219Z,8.30
2022-09-21T18:41:00.323Z,8.10
2022-09-21T18:46:06.376Z,8.00
2022-09-21T18:51:21.073Z,8.00
2022-09-21T18:56:30.883Z,7.90
2022-09-21T19:01:33.945Z,7.90
2022-09-21T19:07:02.983Z,7.90
2022-09-21T19:12:11.207Z,7.70
2022-09-21T19:17:44.565Z,7.60
2022-09-21T19:23:25.616Z,7.70
2022-09-21T19:28:55.024Z,7.50
2022-09-21T19:33:56.880Z,7.50
2022-09-21T19:38:58.839Z,7.50
2022-09-21T19:44:29.689Z,7.40
2022-09-21T19:49:42.648Z,7.50
2022-09-21T19:55:04.238Z,7.50
2022-09-21T20:00:16.911Z,7.50
2022-09-21T20:05:34.228Z,7.40
2022-09-21T20:10:51.756Z,7.30
2022-09-21T20:16:21.559Z,7.20
2022-09-21T20:21:27.385Z,7.30
2022-09-21T20:26:29.842Z,7.30
2022-09-21T20:31:31.583Z,7.20
2022-09-21T20:36:33.609Z,7.20
2022-09-21T20:41:35.634Z,7.10
2022-09-21T20:46:37.386Z,7.00
2022-09-21T20:51:39.089Z,6.90
2022-09-21T20:56:41.263Z,7.00
2022-09-21T21:01:43.067Z,7.00
2022-09-21T21:06:46.144Z,6.90
2022-09-21T21:11:47.934Z,6.80
2022-09-21T21:16:49.806Z,6.80
2022-09-21T21:21:51.635Z,6.60
2022-09-21T21:27:02.566Z,6.40
2022-09-21T21:32:05.338Z,6.30
2022-09-21T21:37:07.170Z,6.20
2022-09-21T21:42:10.002Z,6.20
2022-09-21T21:47:35.180Z,6.10
2022-09-21T21:52:33.694Z,6.20
2022-09-21T21:57:35.423Z,6.20
2022-09-21T22:02:37.292Z,6.20
2022-09-21T22:07:39.932Z,6.20
2022-09-21T22:12:42.855Z,6.20
2022-09-21T22:17:44.570Z,6.20
2022-09-21T22:22:46.298Z,6.20
2022-09-21T22:27:48.086Z,6.10
2022-09-21T22:32:51.452Z,6.10
2022-09-21T22:37:54.537Z,6.10
2022-09-21T22:42:56.347Z,6.10
2022-09-21T22:47:58.130Z,6.10
2022-09-21T22:52:59.881Z,6.10
2022-09-21T22:58:01.619Z,6.10
2022-09-21T23:03:04.077Z,6.20
2022-09-21T23:08:05.804Z,6.40
2022-09-21T23:13:07.533Z,6.40
2022-09-21T23:18:09.721Z,6.40
2022-09-21T23:23:11.584Z,6.40
2022-09-21T23:28:13.311Z,6.30
2022-09-21T23:33:17.170Z,6.30
2022-09-21T23:38:18.936Z,6.30
2022-09-21T23:43:20.739Z,6.20
2022-09-21T23:48:22.755Z,6.20
2022-09-21T23:53:25.550Z,6.10
2022-09-21T23:58:28.059Z,6.10
